Time;durP1;ratioP1;P1;durP2;ratioP2;P2;SDS_P1;SDS_P2;PMS_P1;PMS_P2;Temp;Humidity;BMP_temperature;BMP_pressure;BME280_temperature;BME280_humidity;BME280_pressure;Samples;Min_cycle;Max_cycle;Signal;HPM_P1;HPM_P2
2022/06/28 00:00:17;;;;;;;21.95;16.52;;;13.20;99.90;;;;;;5025624;28;20333;-78
2022/06/28 00:02:43;;;;;;;25.38;18.02;;;13.20;99.90;;;;;;5012060;28;20525;-77
2022/06/28 00:05:09;;;;;;;25.98;15.93;;;13.20;99.90;;;;;;4999184;28;20125;-78
2022/06/28 00:07:36;;;;;;;22.02;16.80;;;13.20;99.90;;;;;;5020809;28;20029;-77
2022/06/28 00:10:02;;;;;;;24.27;17.67;;;13.20;99.90;;;;;;5029304;28;20068;-78
2022/06/28 00:12:28;;;;;;;21.17;16.40;;;13.20;99.90;;;;;;5011678;28;20044;-77
2022/06/28 00:17:38;;;;;;;26.35;18.05;;;13.20;99.90;;;;;;5020369;28;20039;-77
2022/06/28 00:20:05;;;;;;;24.83;17.60;;;13.20;99.90;;;;;;4994528;28;20041;-77
2022/06/28 00:22:31;;;;;;;26.70;17.33;;;13.10;99.90;;;;;;5013906;28;20491;-78
2022/06/28 00:24:57;;;;;;;25.33;18.05;;;13.10;99.90;;;;;;4997552;28;20048;-78
2022/06/28 00:27:23;;;;;;;25.67;18.20;;;13.10;99.90;;;;;;5009535;28;20507;-78
2022/06/28 00:29:48;;;;;;;23.38;17.33;;;13.10;99.90;;;;;;5027527;28;20048;-77
2022/06/28 00:32:14;;;;;;;23.15;17.50;;;13.10;99.90;;;;;;5030217;28;20081;-78
2022/06/28 00:34:40;;;;;;;21.00;15.98;;;13.10;99.90;;;;;;5013584;28;20042;-78
2022/06/28 00:37:06;;;;;;;24.63;17.38;;;13.10;99.90;;;;;;5027748;28;20075;-78
2022/06/28 00:39:31;;;;;;;18.92;16.20;;;13.00;99.90;;;;;;5014052;28;20087;-78
2022/06/28 00:41:57;;;;;;;27.02;17.92;;;13.00;99.90;;;;;;5036060;28;20033;-78
2022/06/28 00:44:23;;;;;;;20.25;17.15;;;13.00;99.90;;;;;;5012859;28;20061;-78
2022/06/28 00:46:49;;;;;;;24.25;17.80;;;13.00;99.90;;;;;;4989202;28;20124;-77
2022/06/28 00:49:15;;;;;;;25.38;17.95;;;13.00;99.90;;;;;;4999270;28;20511;-77
2022/06/28 00:51:41;;;;;;;20.70;16.48;;;13.00;99.90;;;;;;5024948;28;20099;-78
2022/06/28 00:54:07;;;;;;;23.25;17.65;;;13.00;99.90;;;;;;5025131;28;20060;-78
2022/06/28 00:56:34;;;;;;;25.85;17.67;;;13.00;99.90;;;;;;5023496;28;20083;-78
2022/06/28 00:59:00;;;;;;;29.52;18.52;;;13.00;99.90;;;;;;5011413;28;20041;-77
2022/06/28 01:01:26;;;;;;;20.42;15.68;;;12.90;99.90;;;;;;4994598;28;20038;-78
2022/06/28 01:03:53;;;;;;;22.80;18.20;;;12.90;99.90;;;;;;5008504;28;20038;-78
2022/06/28 01:06:19;;;;;;;24.55;17.80;;;12.90;99.90;;;;;;5026365;28;20044;-78
2022/06/28 01:08:46;;;;;;;20.98;16.45;;;12.90;99.90;;;;;;5028785;28;20045;-77
2022/06/28 01:11:19;;;;;;;20.15;16.63;;;12.90;99.90;;;;;;5042318;28;20096;-79
2022/06/28 01:13:58;;;;;;;24.30;17.85;;;12.80;99.90;;;;;;5042159;28;20045;-78
2022/06/28 01:16:24;;;;;;;27.48;18.42;;;12.80;99.90;;;;;;5012331;28;20041;-78
2022/06/28 01:18:50;;;;;;;20.67;17.30;;;12.80;99.90;;;;;;5025841;28;20072;-78
2022/06/28 01:21:17;;;;;;;21.65;17.05;;;12.80;99.90;;;;;;5026491;28;20502;-78
2022/06/28 01:23:45;;;;;;;23.65;16.60;;;12.80;99.90;;;;;;5024722;28;20056;-77
2022/06/28 01:26:21;;;;;;;23.33;17.52;;;12.80;99.90;;;;;;5009834;28;20498;-77
2022/06/28 01:28:48;;;;;;;28.65;19.10;;;12.80;99.90;;;;;;5034220;28;20124;-77
2022/06/28 01:31:16;;;;;;;23.75;17.08;;;12.80;99.90;;;;;;5021355;28;20478;-77
2022/06/28 01:33:42;;;;;;;21.45;17.13;;;12.70;99.90;;;;;;5025043;28;20120;-77
2022/06/28 01:36:09;;;;;;;22.25;16.95;;;12.70;99.90;;;;;;5026616;28;20049;-77
2022/06/28 01:38:36;;;;;;;21.98;16.60;;;12.70;99.90;;;;;;5010488;28;20089;-77
2022/06/28 01:41:02;;;;;;;30.02;18.02;;;12.70;99.90;;;;;;5011798;28;20049;-77
2022/06/28 01:43:31;;;;;;;23.42;17.45;;;12.70;99.90;;;;;;5023513;28;20029;-77
2022/06/28 01:45:58;;;;;;;24.02;17.00;;;12.70;99.90;;;;;;5026557;28;20043;-77
2022/06/28 01:48:25;;;;;;;24.80;17.40;;;12.70;99.90;;;;;;5009443;28;20060;-77
2022/06/28 01:50:52;;;;;;;21.40;16.67;;;12.70;99.90;;;;;;5027438;28;20389;-78
2022/06/28 01:53:19;;;;;;;26.55;17.70;;;12.60;99.90;;;;;;5011538;28;20057;-78
2022/06/28 01:55:45;;;;;;;21.15;17.27;;;12.70;99.90;;;;;;5025329;28;20046;-78
2022/06/28 01:58:14;;;;;;;20.08;15.93;;;12.70;99.90;;;;;;5027886;28;20044;-77
2022/06/28 02:00:40;;;;;;;23.58;17.25;;;12.60;99.90;;;;;;5028580;28;20060;-78
2022/06/28 02:03:07;;;;;;;22.45;17.00;;;12.60;99.90;;;;;;5023421;28;20040;-77
2022/06/28 02:05:33;;;;;;;21.38;16.73;;;12.60;99.90;;;;;;5025380;28;20033;-77
2022/06/28 02:07:59;;;;;;;24.13;17.38;;;12.60;99.90;;;;;;5024163;28;20041;-77
2022/06/28 02:10:25;;;;;;;21.58;17.52;;;12.60;99.90;;;;;;5027523;28;20033;-78
2022/06/28 02:12:51;;;;;;;26.55;18.33;;;12.50;99.90;;;;;;5018494;28;20479;-77
2022/06/28 02:15:17;;;;;;;26.08;18.73;;;12.50;99.90;;;;;;5025178;28;20096;-78
2022/06/28 02:17:44;;;;;;;24.95;18.85;;;12.50;99.90;;;;;;5024079;28;20041;-78
2022/06/28 02:20:11;;;;;;;30.10;19.02;;;12.40;99.90;;;;;;5008547;28;20129;-78
2022/06/28 02:22:40;;;;;;;25.90;19.42;;;12.40;99.90;;;;;;5025771;28;20526;-78
2022/06/28 02:25:09;;;;;;;27.63;19.60;;;12.40;99.90;;;;;;5026180;28;20080;-77
2022/06/28 02:27:34;;;;;;;28.85;20.30;;;12.40;99.90;;;;;;5040090;28;20532;-77
2022/06/28 02:30:00;;;;;;;32.63;22.05;;;12.30;99.90;;;;;;5009921;28;20048;-77
2022/06/28 02:32:26;;;;;;;33.58;23.52;;;12.40;99.90;;;;;;5025921;28;20509;-77
2022/06/28 02:40:23;;;;;;;35.25;24.65;;;12.40;99.90;;;;;;5025050;28;20053;-77
2022/06/28 02:42:49;;;;;;;28.13;22.05;;;12.40;99.90;;;;;;5035514;28;20037;-77
2022/06/28 02:45:16;;;;;;;31.30;22.95;;;12.40;99.90;;;;;;5008371;28;20038;-78
2022/06/28 02:47:41;;;;;;;31.08;23.25;;;12.40;99.90;;;;;;5008907;28;20041;-77
2022/06/28 02:50:08;;;;;;;35.90;23.88;;;12.40;99.90;;;;;;5026532;28;20029;-77
2022/06/28 02:52:33;;;;;;;31.38;23.25;;;12.40;99.90;;;;;;5024388;28;20128;-77
2022/06/28 02:54:59;;;;;;;37.72;24.00;;;12.50;99.90;;;;;;5012399;28;20570;-78
2022/06/28 02:57:25;;;;;;;32.58;23.08;;;12.50;99.90;;;;;;5007003;28;20045;-77
2022/06/28 02:59:51;;;;;;;33.08;25.00;;;12.50;99.90;;;;;;5007856;28;20055;-77
2022/06/28 03:02:16;;;;;;;40.63;24.25;;;12.50;99.90;;;;;;5008826;28;20121;-77
2022/06/28 03:04:42;;;;;;;36.97;24.50;;;12.60;99.90;;;;;;5024579;28;20084;-77
2022/06/28 03:07:08;;;;;;;35.95;23.75;;;12.60;99.90;;;;;;5004314;28;20425;-77
2022/06/28 03:09:33;;;;;;;37.28;24.67;;;12.60;99.90;;;;;;4990841;28;20057;-77
2022/06/28 03:11:59;;;;;;;33.30;24.00;;;12.60;99.90;;;;;;5001114;28;20080;-77
2022/06/28 03:14:25;;;;;;;37.88;24.98;;;12.70;99.90;;;;;;5010145;28;20406;-77
2022/06/28 03:16:51;;;;;;;32.33;24.40;;;12.60;99.90;;;;;;4994723;28;20041;-77
2022/06/28 03:19:16;;;;;;;39.40;25.75;;;12.60;99.90;;;;;;5031314;28;20084;-77
2022/06/28 03:21:44;;;;;;;34.53;23.42;;;12.70;99.90;;;;;;5012152;28;20046;-77
2022/06/28 03:24:09;;;;;;;33.65;24.52;;;12.70;99.90;;;;;;5040907;28;20029;-77
2022/06/28 03:26:35;;;;;;;33.45;22.83;;;12.70;99.90;;;;;;5028562;28;20394;-77
2022/06/28 03:29:01;;;;;;;33.47;23.55;;;12.70;99.90;;;;;;5029138;28;20038;-77
2022/06/28 03:31:26;;;;;;;30.40;22.42;;;12.80;99.90;;;;;;5007897;28;20061;-77
2022/06/28 03:33:52;;;;;;;34.72;23.60;;;12.70;99.90;;;;;;5010255;28;20038;-77
2022/06/28 03:36:18;;;;;;;26.80;21.80;;;12.80;99.90;;;;;;5014235;28;20187;-78
2022/06/28 03:38:44;;;;;;;33.22;23.35;;;12.80;99.90;;;;;;4997634;28;20053;-78
2022/06/28 03:41:09;;;;;;;34.88;24.25;;;12.80;99.90;;;;;;5017109;28;20183;-78
2022/06/28 03:43:35;;;;;;;30.70;21.50;;;12.80;99.90;;;;;;5030513;28;20088;-77
2022/06/28 03:46:01;;;;;;;34.90;23.63;;;12.80;99.90;;;;;;5007643;28;20071;-77
2022/06/28 03:48:26;;;;;;;34.30;23.52;;;12.80;99.90;;;;;;5004282;28;20037;-78
2022/06/28 03:50:52;;;;;;;34.10;23.63;;;12.80;99.90;;;;;;5032622;28;20029;-78
2022/06/28 03:53:18;;;;;;;32.92;22.23;;;12.70;99.90;;;;;;5026588;28;20046;-78
2022/06/28 03:55:43;;;;;;;33.15;24.13;;;12.70;99.90;;;;;;5022219;28;20128;-77
2022/06/28 03:58:09;;;;;;;37.55;24.55;;;12.70;99.90;;;;;;5036145;28;20034;-77
2022/06/28 04:00:35;;;;;;;43.03;25.58;;;12.60;99.90;;;;;;5031445;28;20037;-78
2022/06/28 04:03:01;;;;;;;33.17;24.67;;;12.60;99.90;;;;;;5012111;28;20044;-77
2022/06/28 04:05:28;;;;;;;38.88;24.15;;;12.60;99.90;;;;;;5013382;28;20096;-78
2022/06/28 04:07:54;;;;;;;31.83;23.08;;;12.60;99.90;;;;;;5025968;28;20065;-78
2022/06/28 04:10:20;;;;;;;38.88;24.40;;;12.50;99.90;;;;;;5019817;28;20439;-77
2022/06/28 04:12:45;;;;;;;35.67;24.38;;;12.60;99.90;;;;;;5026485;28;20043;-78
2022/06/28 04:15:11;;;;;;;38.20;24.52;;;12.50;99.90;;;;;;5007137;28;20041;-77
2022/06/28 04:17:37;;;;;;;41.03;25.45;;;12.50;99.90;;;;;;5014714;28;20072;-78
2022/06/28 04:20:03;;;;;;;35.95;25.52;;;12.60;99.90;;;;;;5001066;28;20069;-77
2022/06/28 04:22:29;;;;;;;34.80;25.25;;;12.50;99.90;;;;;;5031055;28;20052;-77
2022/06/28 04:24:54;;;;;;;35.53;26.45;;;12.50;99.90;;;;;;5028550;28;20029;-78
2022/06/28 04:27:20;;;;;;;36.17;26.23;;;12.50;99.90;;;;;;5023738;28;20039;-78
2022/06/28 04:29:46;;;;;;;45.75;27.65;;;12.60;99.90;;;;;;4996923;28;20510;-79
2022/06/28 04:32:12;;;;;;;38.65;25.63;;;12.60;99.90;;;;;;5028162;28;20065;-77
2022/06/28 04:34:37;;;;;;;35.05;25.33;;;12.60;99.90;;;;;;4994291;28;20039;-77
2022/06/28 04:37:03;;;;;;;37.05;25.67;;;12.60;99.90;;;;;;5008829;28;20100;-77
2022/06/28 04:39:29;;;;;;;37.85;27.40;;;12.60;99.90;;;;;;5027358;28;20045;-77
2022/06/28 04:41:56;;;;;;;34.03;24.98;;;12.60;99.90;;;;;;4997687;28;20549;-77
2022/06/28 04:44:22;;;;;;;37.67;26.45;;;12.60;99.90;;;;;;4997764;28;20034;-77
2022/06/28 04:46:48;;;;;;;38.83;24.85;;;12.70;99.90;;;;;;5030858;28;20092;-78
2022/06/28 04:49:13;;;;;;;38.20;25.65;;;12.70;99.90;;;;;;5009530;28;20115;-78
2022/06/28 04:51:39;;;;;;;34.85;24.13;;;12.70;99.90;;;;;;5002016;28;20107;-78
2022/06/28 04:54:05;;;;;;;40.42;26.85;;;12.70;99.90;;;;;;5021272;28;20091;-78
2022/06/28 04:56:30;;;;;;;42.33;26.70;;;12.70;99.90;;;;;;4978047;28;20049;-78
2022/06/28 04:58:56;;;;;;;39.60;26.27;;;12.70;99.90;;;;;;5020020;28;20079;-78
2022/06/28 05:01:22;;;;;;;42.15;26.88;;;12.80;99.90;;;;;;5029238;28;20056;-79
2022/06/28 05:03:48;;;;;;;48.88;28.83;;;12.80;99.90;;;;;;4995691;28;20045;-78
2022/06/28 05:06:13;;;;;;;39.85;26.58;;;12.80;99.90;;;;;;5013199;28;20477;-78
2022/06/28 05:08:39;;;;;;;40.22;27.60;;;12.90;99.90;;;;;;5029175;28;20036;-78
2022/06/28 05:11:07;;;;;;;42.30;26.45;;;12.90;99.90;;;;;;5008569;28;20465;-78
2022/06/28 05:13:33;;;;;;;40.90;27.02;;;12.90;99.90;;;;;;5019058;28;20465;-78
2022/06/28 05:15:59;;;;;;;46.95;27.65;;;13.00;99.90;;;;;;5010681;28;20191;-78
2022/06/28 05:18:25;;;;;;;42.35;27.35;;;13.00;99.90;;;;;;5018701;28;20128;-78
2022/06/28 05:20:53;;;;;;;39.72;26.75;;;13.10;99.90;;;;;;5020910;28;20041;-78
2022/06/28 05:23:19;;;;;;;42.03;26.98;;;13.10;99.90;;;;;;4985543;28;20037;-77
2022/06/28 05:25:44;;;;;;;32.45;23.10;;;13.10;99.90;;;;;;5014906;28;20132;-77
2022/06/28 05:28:10;;;;;;;33.38;21.92;;;13.20;99.90;;;;;;4996028;28;20458;-78
2022/06/28 05:30:36;;;;;;;34.72;23.02;;;13.30;99.90;;;;;;5027165;28;20674;-78
2022/06/28 05:33:03;;;;;;;31.60;21.88;;;13.30;99.90;;;;;;5011414;28;20047;-78
2022/06/28 05:35:29;;;;;;;30.27;21.67;;;13.40;99.90;;;;;;5033167;28;20125;-77
2022/06/28 05:37:55;;;;;;;30.60;22.17;;;13.40;99.90;;;;;;5013283;28;20061;-78
2022/06/28 05:40:21;;;;;;;35.47;23.80;;;13.50;99.90;;;;;;5016764;28;20116;-78
2022/06/28 05:42:47;;;;;;;37.03;23.25;;;13.60;99.90;;;;;;5012199;28;20045;-77
2022/06/28 05:45:12;;;;;;;33.00;24.17;;;13.70;99.90;;;;;;5013119;28;20072;-78
2022/06/28 05:47:38;;;;;;;33.65;21.83;;;13.80;99.90;;;;;;5015368;28;20038;-78
2022/06/28 05:50:04;;;;;;;35.08;20.42;;;13.80;99.90;;;;;;5012953;28;20512;-78
2022/06/28 05:52:30;;;;;;;30.63;20.65;;;13.90;99.90;;;;;;5025230;28;20387;-78
2022/06/28 05:54:56;;;;;;;27.52;20.52;;;13.90;99.90;;;;;;5020645;28;20044;-78
2022/06/28 05:57:21;;;;;;;29.13;21.58;;;13.90;99.90;;;;;;5017790;28;20080;-78
2022/06/28 05:59:47;;;;;;;29.52;19.02;;;13.90;99.90;;;;;;5026229;28;20152;-78
2022/06/28 06:02:13;;;;;;;32.55;19.83;;;13.90;99.90;;;;;;5010162;28;20092;-78
2022/06/28 06:04:38;;;;;;;31.08;20.13;;;13.90;99.90;;;;;;5023279;28;20084;-78
2022/06/28 06:07:04;;;;;;;26.88;18.52;;;14.00;99.90;;;;;;5019885;28;20049;-78
2022/06/28 06:09:30;;;;;;;27.33;18.50;;;14.00;99.90;;;;;;5037484;28;20160;-77
2022/06/28 06:11:56;;;;;;;22.80;17.33;;;14.10;99.90;;;;;;4992833;28;20120;-78
2022/06/28 06:14:22;;;;;;;22.25;14.90;;;14.20;99.90;;;;;;5018768;28;20486;-77
2022/06/28 06:16:50;;;;;;;27.42;17.63;;;14.20;99.90;;;;;;5023477;28;20091;-78
2022/06/28 06:19:17;;;;;;;22.25;14.88;;;14.30;99.90;;;;;;4995508;28;20037;-78
2022/06/28 06:21:42;;;;;;;25.95;15.60;;;14.40;99.90;;;;;;5019214;28;20065;-78
2022/06/28 06:24:09;;;;;;;22.88;15.15;;;14.40;99.90;;;;;;5026867;28;20127;-78
2022/06/28 06:26:35;;;;;;;24.08;15.23;;;14.50;99.90;;;;;;5027826;28;20530;-78
2022/06/28 06:29:00;;;;;;;23.38;14.55;;;14.50;99.90;;;;;;5012229;28;20033;-77
2022/06/28 06:31:27;;;;;;;26.70;13.73;;;14.60;99.90;;;;;;5025185;28;20042;-78
2022/06/28 06:33:53;;;;;;;24.33;15.00;;;14.60;99.90;;;;;;5008412;28;20076;-77
2022/06/28 06:36:19;;;;;;;19.40;13.98;;;14.70;99.90;;;;;;5011620;28;20479;-78
2022/06/28 06:38:45;;;;;;;20.40;12.25;;;14.70;99.90;;;;;;5010584;28;20196;-78
2022/06/28 06:41:11;;;;;;;15.93;12.50;;;14.80;99.90;;;;;;5018672;28;20495;-77
2022/06/28 06:43:37;;;;;;;22.55;13.30;;;14.80;99.90;;;;;;5011609;28;20123;-77
2022/06/28 06:46:03;;;;;;;17.88;11.82;;;15.00;99.90;;;;;;5010897;28;20068;-77
2022/06/28 06:48:28;;;;;;;16.33;11.60;;;15.00;99.90;;;;;;5012939;28;20045;-77
2022/06/28 06:50:54;;;;;;;16.85;10.50;;;15.00;99.90;;;;;;5025955;28;20087;-78
2022/06/28 06:53:20;;;;;;;17.35;11.55;;;15.10;99.90;;;;;;5011579;28;20049;-78
2022/06/28 06:55:49;;;;;;;22.85;12.50;;;15.20;99.90;;;;;;5002576;28;20050;-77
2022/06/28 06:58:15;;;;;;;15.45;11.40;;;15.30;99.90;;;;;;5038307;28;20448;-77
2022/06/28 07:00:41;;;;;;;14.52;9.35;;;15.50;99.90;;;;;;5021938;28;20041;-77
2022/06/28 07:03:10;;;;;;;18.23;8.20;;;15.60;99.90;;;;;;5011745;28;20038;-78
2022/06/28 07:05:39;;;;;;;14.60;8.15;;;15.70;99.90;;;;;;5028273;28;20034;-77
2022/06/28 07:08:07;;;;;;;15.80;8.38;;;15.80;99.90;;;;;;5014961;28;20394;-78
2022/06/28 07:10:33;;;;;;;15.25;8.77;;;15.90;99.90;;;;;;5016965;28;20041;-78
2022/06/28 07:13:01;;;;;;;12.57;8.20;;;16.10;99.90;;;;;;5014762;28;20046;-78
2022/06/28 07:15:26;;;;;;;17.08;8.75;;;16.20;99.90;;;;;;5031329;28;20041;-78
2022/06/28 07:17:52;;;;;;;16.17;9.18;;;16.30;99.90;;;;;;5049569;28;20561;-78
2022/06/28 07:20:18;;;;;;;18.35;10.20;;;16.40;99.90;;;;;;5010623;28;20045;-78
2022/06/28 07:22:44;;;;;;;15.93;9.25;;;16.50;99.90;;;;;;5015354;28;20034;-77
2022/06/28 07:25:13;;;;;;;13.73;7.72;;;16.60;99.90;;;;;;5010418;28;20060;-78
2022/06/28 07:27:39;;;;;;;13.95;8.88;;;16.70;99.90;;;;;;5014897;28;20187;-78
2022/06/28 07:30:11;;;;;;;12.50;8.27;;;16.90;99.90;;;;;;5008064;28;20123;-78
2022/06/28 07:32:37;;;;;;;13.85;7.63;;;17.00;99.90;;;;;;5014825;28;20038;-78
2022/06/28 07:35:05;;;;;;;14.43;8.85;;;17.10;99.90;;;;;;5030823;28;20060;-78
2022/06/28 07:37:31;;;;;;;13.95;7.20;;;17.20;99.90;;;;;;5022423;28;20514;-78
2022/06/28 07:40:00;;;;;;;12.82;7.40;;;17.30;99.90;;;;;;5036015;28;20059;-78
2022/06/28 07:42:26;;;;;;;13.77;7.40;;;17.10;99.90;;;;;;4987979;28;20083;-78
2022/06/28 07:44:51;;;;;;;14.40;7.20;;;17.10;99.90;;;;;;5026859;28;20134;-79
2022/06/28 07:47:17;;;;;;;12.65;7.07;;;17.10;99.90;;;;;;5019643;28;20045;-78
2022/06/28 07:52:37;;;;;;;12.30;7.03;;;17.10;99.90;;;;;;5026570;28;20081;-80
2022/06/28 07:55:08;;;;;;;10.30;6.40;;;17.10;99.90;;;;;;4999398;28;20041;-78
2022/06/28 07:57:34;;;;;;;14.80;6.70;;;17.10;99.90;;;;;;5016184;28;20048;-78
2022/06/28 08:00:00;;;;;;;9.60;6.38;;;17.20;99.90;;;;;;5022404;28;20055;-79
2022/06/28 08:02:26;;;;;;;14.02;6.68;;;17.40;99.90;;;;;;5034929;28;20060;-78
2022/06/28 08:04:51;;;;;;;11.05;5.35;;;17.60;99.90;;;;;;4983481;28;20487;-79
2022/06/28 08:07:20;;;;;;;16.17;6.32;;;17.80;99.90;;;;;;5030698;28;20041;-79
2022/06/28 08:09:48;;;;;;;13.23;8.05;;;17.90;99.90;;;;;;5014273;28;20044;-80
2022/06/28 08:12:17;;;;;;;11.38;6.85;;;18.00;99.90;;;;;;5022497;28;20257;-79
2022/06/28 08:14:42;;;;;;;16.63;6.35;;;17.90;99.90;;;;;;5024727;28;20049;-80
2022/06/28 08:17:11;;;;;;;13.15;5.18;;;17.80;99.90;;;;;;5014255;28;20547;-79
2022/06/28 08:19:36;;;;;;;8.73;4.82;;;17.80;99.90;;;;;;5009907;28;20138;-80
2022/06/28 08:22:03;;;;;;;8.30;5.18;;;17.80;99.90;;;;;;5014192;28;20052;-80
2022/06/28 08:24:28;;;;;;;11.05;5.38;;;17.90;99.90;;;;;;5012189;28;20042;-81
2022/06/28 08:26:54;;;;;;;8.60;4.60;;;18.00;99.90;;;;;;5015178;28;20089;-80
2022/06/28 08:29:23;;;;;;;7.72;4.55;;;18.00;99.90;;;;;;5007558;28;20037;-80
2022/06/28 08:31:49;;;;;;;6.90;4.72;;;17.90;99.90;;;;;;5029220;28;20029;-80
2022/06/28 08:34:15;;;;;;;7.25;4.30;;;18.00;99.90;;;;;;5015043;28;20045;-81
2022/06/28 08:36:40;;;;;;;7.55;4.53;;;18.00;99.90;;;;;;5029316;28;20046;-80
2022/06/28 08:39:07;;;;;;;7.90;5.13;;;17.90;99.90;;;;;;5006614;28;20066;-81
2022/06/28 08:41:35;;;;;;;8.52;3.90;;;18.00;99.90;;;;;;5011523;28;20042;-80
2022/06/28 08:44:01;;;;;;;7.60;3.33;;;18.20;99.90;;;;;;5039295;28;20076;-80
2022/06/28 08:46:31;;;;;;;5.25;3.10;;;18.30;99.90;;;;;;5046896;28;20516;-81
2022/06/28 08:49:04;;;;;;;7.65;3.10;;;18.40;99.90;;;;;;5022827;28;20459;-80
2022/06/28 08:51:32;;;;;;;5.07;2.60;;;18.40;99.90;;;;;;5041542;28;20112;-81
2022/06/28 08:54:05;;;;;;;6.43;2.78;;;18.50;99.90;;;;;;5012763;28;20041;-79
2022/06/28 08:56:34;;;;;;;7.57;2.92;;;18.40;99.90;;;;;;5011039;28;20104;-79
2022/06/28 08:59:00;;;;;;;6.55;2.45;;;18.50;99.90;;;;;;5010558;28;20385;-80
2022/06/28 09:01:26;;;;;;;5.70;2.50;;;18.50;99.90;;;;;;4997283;28;20381;-79
2022/06/28 09:03:54;;;;;;;4.63;2.72;;;18.60;99.90;;;;;;5005226;28;20048;-80
2022/06/28 09:06:22;;;;;;;7.15;2.47;;;18.50;99.90;;;;;;5011055;28;20483;-81
2022/06/28 09:08:50;;;;;;;4.82;2.20;;;18.40;99.90;;;;;;5002735;28;20049;-80
2022/06/28 09:11:16;;;;;;;5.97;2.53;;;18.20;99.90;;;;;;4998008;28;20475;-79
2022/06/28 09:13:42;;;;;;;4.65;2.28;;;18.30;99.90;;;;;;5018587;28;20047;-80
2022/06/28 09:16:08;;;;;;;5.95;2.42;;;18.50;99.90;;;;;;5009961;28;20037;-79
2022/06/28 09:18:37;;;;;;;7.35;2.33;;;18.60;99.90;;;;;;5012435;28;20096;-82
2022/06/28 09:21:12;;;;;;;5.50;3.10;;;19.00;99.90;;;;;;5050913;28;20405;-81
2022/06/28 09:23:40;;;;;;;8.32;2.53;;;19.20;99.90;;;;;;5028112;28;20037;-79
2022/06/28 09:26:08;;;;;;;4.00;2.00;;;19.20;99.90;;;;;;5007860;28;20095;-81
2022/06/28 09:28:39;;;;;;;6.28;2.40;;;19.10;99.90;;;;;;5025204;28;20041;-80
2022/06/28 09:31:23;;;;;;;6.68;2.42;;;19.00;99.90;;;;;;5010320;28;20113;-80
2022/06/28 09:34:02;;;;;;;7.75;2.85;;;19.00;99.90;;;;;;5052753;28;20041;-80
2022/06/28 09:36:33;;;;;;;6.60;2.95;;;19.20;99.90;;;;;;5023477;28;20045;-80
2022/06/28 09:39:13;;;;;;;8.40;2.22;;;19.50;99.90;;;;;;5032005;28;20495;-81
2022/06/28 09:41:43;;;;;;;8.70;2.90;;;19.70;99.90;;;;;;5029931;28;20521;-81
2022/06/28 09:44:09;;;;;;;8.30;2.90;;;19.80;99.90;;;;;;5027499;28;20041;-81
2022/06/28 09:46:35;;;;;;;5.75;2.80;;;19.70;99.90;;;;;;4993742;28;20415;-80
2022/06/28 09:49:05;;;;;;;6.50;2.67;;;19.60;99.90;;;;;;5012220;28;20045;-81
2022/06/28 09:51:33;;;;;;;7.88;2.90;;;19.80;99.90;;;;;;5023906;28;20030;-80
2022/06/28 09:54:09;;;;;;;9.13;2.30;;;19.90;99.90;;;;;;5014069;28;20136;-81
2022/06/28 09:56:41;;;;;;;6.45;2.20;;;19.80;99.90;;;;;;4999316;28;20049;-83
2022/06/28 09:59:10;;;;;;;7.85;2.38;;;19.80;99.90;;;;;;5009831;28;20085;-80
2022/06/28 10:01:40;;;;;;;7.55;2.08;;;20.00;99.90;;;;;;5026542;28;20117;-80
2022/06/28 10:04:06;;;;;;;6.68;2.20;;;20.10;99.90;;;;;;5021758;28;20499;-80
2022/06/28 10:06:33;;;;;;;5.82;2.33;;;20.30;99.90;;;;;;5022065;28;20497;-81
2022/06/28 10:08:59;;;;;;;6.45;2.17;;;20.50;99.90;;;;;;5011467;28;20052;-81
2022/06/28 10:15:01;;;;;;;3.22;1.60;;;20.40;99.90;;;;;;5038433;28;20037;-82
2022/06/28 10:17:05;;;;;;;3.53;1.88;;;20.70;99.90;;;;;;5009655;28;20062;-81
2022/06/28 10:19:33;;;;;;;2.88;1.65;;;20.70;99.90;;;;;;5037951;28;20052;-81
2022/06/28 10:22:13;;;;;;;5.63;2.33;;;20.90;99.90;;;;;;5010598;28;20053;-81
2022/06/28 10:25:00;;;;;;;4.97;2.25;;;20.70;99.90;;;;;;5014851;28;20483;-82
2022/06/28 10:27:27;;;;;;;3.08;1.60;;;20.60;99.70;;;;;;5027110;28;20037;-81
2022/06/28 10:30:00;;;;;;;5.28;1.90;;;20.60;99.90;;;;;;5027337;28;20030;-81
2022/06/28 10:32:48;;;;;;;6.05;2.20;;;20.40;97.40;;;;;;5019269;28;20030;-80
2022/06/28 10:35:29;;;;;;;4.20;1.60;;;20.50;99.30;;;;;;5038190;28;20463;-81
2022/06/28 10:38:10;;;;;;;5.03;2.05;;;20.60;99.90;;;;;;5038442;28;20256;-81
2022/06/28 10:40:47;;;;;;;6.45;2.25;;;20.40;99.40;;;;;;5018632;28;20029;-80
2022/06/28 10:43:49;;;;;;;7.28;1.67;;;20.40;99.90;;;;;;5022921;28;20473;-81
2022/06/28 10:46:16;;;;;;;5.78;2.25;;;20.50;99.00;;;;;;5004892;28;20065;-81
2022/06/28 10:48:50;;;;;;;4.97;2.03;;;20.80;99.90;;;;;;5006832;28;20044;-80
2022/06/28 10:51:18;;;;;;;6.63;1.80;;;20.90;99.60;;;;;;5035978;28;20033;-81
2022/06/28 10:54:01;;;;;;;4.72;1.75;;;21.00;99.00;;;;;;5002743;28;20049;-81
2022/06/28 10:56:27;;;;;;;;;;;21.10;97.00;;;;;;5021776;28;20049;-81
2022/06/28 10:59:04;;;;;;;2.15;1.60;;;21.30;97.60;;;;;;5012414;28;20382;-82
2022/06/28 11:01:39;;;;;;;4.80;1.88;;;21.40;95.50;;;;;;5009540;28;20040;-82
2022/06/28 11:04:12;;;;;;;3.75;1.90;;;21.50;95.70;;;;;;5020172;28;20041;-81
2022/06/28 11:06:56;;;;;;;6.20;1.92;;;21.30;97.70;;;;;;4993145;28;20077;-81
2022/06/28 11:09:34;;;;;;;4.28;1.90;;;21.30;98.00;;;;;;5012594;28;20041;-82
2022/06/28 11:12:13;;;;;;;7.07;2.13;;;21.30;97.80;;;;;;5012534;28;20045;-84
2022/06/28 11:14:55;;;;;;;5.22;2.33;;;21.50;96.20;;;;;;5026225;28;20116;-82
2022/06/28 11:17:27;;;;;;;;;;;21.60;96.20;;;;;;5013985;28;20042;-80
2022/06/28 11:20:09;;;;;;;8.57;2.00;;;21.80;96.20;;;;;;5033112;28;19924;-79
2022/06/28 11:22:38;;;;;;;5.40;1.92;;;21.90;96.40;;;;;;5041055;28;20099;-80
2022/06/28 11:25:06;;;;;;;3.30;1.65;;;22.00;97.70;;;;;;5021492;28;20042;-80
2022/06/28 11:27:33;;;;;;;5.47;2.42;;;22.00;98.10;;;;;;5022548;28;20040;-81
2022/06/28 11:30:06;;;;;;;5.55;2.75;;;22.00;96.70;;;;;;5011695;28;20090;-82
2022/06/28 11:32:34;;;;;;;6.00;2.17;;;22.00;94.70;;;;;;5008785;28;20088;-81
2022/06/28 11:35:10;;;;;;;5.25;2.03;;;21.90;96.20;;;;;;5018634;28;20117;-81
2022/06/28 11:37:56;;;;;;;3.22;1.70;;;21.70;96.40;;;;;;5018579;28;20104;-81
2022/06/28 11:40:24;;;;;;;6.63;2.00;;;21.70;95.70;;;;;;5023403;28;20041;-81
2022/06/28 11:43:11;;;;;;;4.45;2.20;;;21.90;96.80;;;;;;5030939;28;20051;-81
2022/06/28 11:45:42;;;;;;;10.25;2.22;;;22.20;94.10;;;;;;5025035;28;20041;-81
2022/06/28 11:48:15;;;;;;;7.78;2.00;;;22.10;95.70;;;;;;5036801;28;20518;-81
2022/06/28 11:50:51;;;;;;;9.85;2.20;;;22.00;95.00;;;;;;5015334;28;20601;-81
2022/06/28 11:53:18;;;;;;;3.10;2.03;;;22.00;95.70;;;;;;5022308;28;20042;-82
2022/06/28 11:55:50;;;;;;;3.47;1.80;;;21.90;95.90;;;;;;5022821;28;20046;-80
2022/06/28 11:58:27;;;;;;;8.63;2.07;;;22.00;96.00;;;;;;5039617;28;20041;-81
2022/06/28 12:01:08;;;;;;;4.95;2.05;;;22.00;96.60;;;;;;5035390;28;20475;-82
2022/06/28 12:03:58;;;;;;;5.93;1.80;;;22.10;96.20;;;;;;5026942;28;20052;-82
2022/06/28 12:06:33;;;;;;;5.57;2.00;;;22.30;96.30;;;;;;5022163;28;20037;-82
2022/06/28 12:09:07;;;;;;;4.68;1.70;;;22.50;93.50;;;;;;5016160;28;20049;-82
2022/06/28 12:11:51;;;;;;;5.30;1.90;;;22.70;94.20;;;;;;5015702;28;20036;-83
2022/06/28 12:14:18;;;;;;;4.07;1.73;;;22.80;95.70;;;;;;5032303;28;20167;-81
2022/06/28 12:16:45;;;;;;;3.33;1.63;;;23.00;95.10;;;;;;5024323;28;20053;-81
2022/06/28 12:19:22;;;;;;;4.38;1.90;;;23.10;94.70;;;;;;5012215;28;20052;-82
2022/06/28 12:22:01;;;;;;;5.07;1.63;;;22.90;92.40;;;;;;5023667;28;20046;-82
2022/06/28 12:24:51;;;;;;;4.50;1.75;;;22.70;93.50;;;;;;5026074;28;20034;-81
2022/06/28 12:27:31;;;;;;;5.53;1.65;;;22.70;91.70;;;;;;5039677;28;20045;-81
2022/06/28 12:29:58;;;;;;;3.47;1.50;;;22.70;93.00;;;;;;5023774;28;20399;-81
2022/06/28 12:32:25;;;;;;;4.78;1.60;;;22.90;93.80;;;;;;5034228;28;20502;-82
2022/06/28 12:35:05;;;;;;;5.30;1.83;;;23.10;94.00;;;;;;5016103;28;20037;-81
2022/06/28 12:37:33;;;;;;;4.13;1.83;;;23.10;91.40;;;;;;5006759;28;20411;-82
2022/06/28 12:39:59;;;;;;;5.70;1.90;;;23.00;92.90;;;;;;5035423;28;20041;-82
2022/06/28 12:42:30;;;;;;;6.38;1.85;;;23.10;93.40;;;;;;5015104;28;20032;-81
2022/06/28 12:45:02;;;;;;;3.78;1.85;;;22.90;92.20;;;;;;5005282;28;20034;-82
2022/06/28 12:47:40;;;;;;;4.93;1.48;;;22.90;92.30;;;;;;5005040;28;20069;-82
2022/06/28 12:50:09;;;;;;;5.18;2.22;;;23.00;91.80;;;;;;5017409;28;20049;-82
2022/06/28 12:52:36;;;;;;;3.50;1.60;;;23.00;92.30;;;;;;4994469;28;20030;-81
2022/06/28 12:55:03;;;;;;;3.90;1.88;;;23.00;92.50;;;;;;5011478;28;20384;-81